sensor_id;sensor_type;location;lat;lon;timestamp;temperature;humidity
31263;DHT22;17892;52.080;9.006;2023-02-15T00:01:43;4.80;99.90
31263;DHT22;17892;52.080;9.006;2023-02-15T00:04:10;4.70;99.90
31263;DHT22;17892;52.080;9.006;2023-02-15T00:06:38;4.60;99.90
31263;DHT22;17892;52.080;9.006;2023-02-15T00:09:04;4.60;99.90
31263;DHT22;17892;52.080;9.006;2023-02-15T00:11:30;4.60;99.90
31263;DHT22;17892;52.080;9.006;2023-02-15T00:14:12;4.50;99.90
31263;DHT22;17892;52.080;9.006;2023-02-15T00:16:40;4.50;99.90
31263;DHT22;17892;52.080;9.006;2023-02-15T00:19:09;4.50;99.90
31263;DHT22;17892;52.080;9.006;2023-02-15T00:21:36;4.40;99.90
31263;DHT22;17892;52.080;9.006;2023-02-15T00:24:05;4.40;99.90
31263;DHT22;17892;52.080;9.006;2023-02-15T00:26:32;4.40;99.90
31263;DHT22;17892;52.080;9.006;2023-02-15T00:28:58;4.40;99.90
31263;DHT22;17892;52.080;9.006;2023-02-15T00:31:24;4.40;99.90
31263;DHT22;17892;52.080;9.006;2023-02-15T00:33:50;4.40;99.90
31263;DHT22;17892;52.080;9.006;2023-02-15T00:36:16;4.40;99.90
31263;DHT22;17892;52.080;9.006;2023-02-15T00:38:42;4.40;99.90
31263;DHT22;17892;52.080;9.006;2023-02-15T00:41:09;4.40;99.90
31263;DHT22;17892;52.080;9.006;2023-02-15T00:43:35;4.40;99.90
31263;DHT22;17892;52.080;9.006;2023-02-15T00:46:02;4.30;99.90
31263;DHT22;17892;52.080;9.006;2023-02-15T00:48:29;4.30;99.90
31263;DHT22;17892;52.080;9.006;2023-02-15T00:50:56;4.30;99.90
31263;DHT22;17892;52.080;9.006;2023-02-15T00:53:24;4.30;99.90
31263;DHT22;17892;52.080;9.006;2023-02-15T00:55:50;4.30;99.90
31263;DHT22;17892;52.080;9.006;2023-02-15T00:58:16;4.30;99.90
31263;DHT22;17892;52.080;9.006;2023-02-15T01:00:44;4.20;99.90
31263;DHT22;17892;52.080;9.006;2023-02-15T01:03:11;4.20;99.90
31263;DHT22;17892;52.080;9.006;2023-02-15T01:05:38;4.20;99.90
31263;DHT22;17892;52.080;9.006;2023-02-15T01:08:03;4.20;99.90
31263;DHT22;17892;52.080;9.006;2023-02-15T01:10:29;4.10;99.90
31263;DHT22;17892;52.080;9.006;2023-02-15T01:12:56;4.20;99.90
31263;DHT22;17892;52.080;9.006;2023-02-15T01:15:23;4.10;99.90
31263;DHT22;17892;52.080;9.006;2023-02-15T01:17:49;4.10;99.90
31263;DHT22;17892;52.080;9.006;2023-02-15T01:20:19;4.00;99.90
31263;DHT22;17892;52.080;9.006;2023-02-15T01:22:46;4.00;99.90
31263;DHT22;17892;52.080;9.006;2023-02-15T01:25:11;4.00;99.90
31263;DHT22;17892;52.080;9.006;2023-02-15T01:27:37;4.00;99.90
31263;DHT22;17892;52.080;9.006;2023-02-15T01:30:03;4.00;99.90
31263;DHT22;17892;52.080;9.006;2023-02-15T01:32:30;3.90;99.90
31263;DHT22;17892;52.080;9.006;2023-02-15T01:34:56;3.90;99.90
31263;DHT22;17892;52.080;9.006;2023-02-15T01:37:22;3.90;99.90
31263;DHT22;17892;52.080;9.006;2023-02-15T01:39:48;3.90;99.90
31263;DHT22;17892;52.080;9.006;2023-02-15T01:42:13;3.90;99.90
31263;DHT22;17892;52.080;9.006;2023-02-15T01:44:47;3.90;99.90
31263;DHT22;17892;52.080;9.006;2023-02-15T01:50:11;3.90;99.90
31263;DHT22;17892;52.080;9.006;2023-02-15T01:55:22;3.80;99.90
31263;DHT22;17892;52.080;9.006;2023-02-15T01:57:50;3.80;99.90
31263;DHT22;17892;52.080;9.006;2023-02-15T02:00:17;3.80;99.90
31263;DHT22;17892;52.080;9.006;2023-02-15T02:02:45;3.70;99.90
31263;DHT22;17892;52.080;9.006;2023-02-15T02:05:12;3.70;99.90
31263;DHT22;17892;52.080;9.006;2023-02-15T02:07:41;3.60;99.90
31263;DHT22;17892;52.080;9.006;2023-02-15T02:10:08;3.60;99.90
31263;DHT22;17892;52.080;9.006;2023-02-15T02:12:37;3.60;99.90
31263;DHT22;17892;52.080;9.006;2023-02-15T02:15:04;3.50;99.90
31263;DHT22;17892;52.080;9.006;2023-02-15T02:23:16;3.40;99.90
31263;DHT22;17892;52.080;9.006;2023-02-15T02:34:35;3.20;99.90
31263;DHT22;17892;52.080;9.006;2023-02-15T02:37:19;3.20;99.90
31263;DHT22;17892;52.080;9.006;2023-02-15T02:39:58;3.20;99.90
31263;DHT22;17892;52.080;9.006;2023-02-15T02:42:44;3.10;99.90
31263;DHT22;17892;52.080;9.006;2023-02-15T02:45:40;3.10;99.90
31263;DHT22;17892;52.080;9.006;2023-02-15T02:48:13;3.10;99.90
31263;DHT22;17892;52.080;9.006;2023-02-15T02:50:41;3.00;99.90
31263;DHT22;17892;52.080;9.006;2023-02-15T02:53:08;3.00;99.90
31263;DHT22;17892;52.080;9.006;2023-02-15T02:55:52;2.90;99.90
31263;DHT22;17892;52.080;9.006;2023-02-15T03:00:56;2.80;99.90
31263;DHT22;17892;52.080;9.006;2023-02-15T03:03:39;2.80;99.90
31263;DHT22;17892;52.080;9.006;2023-02-15T03:06:10;2.80;99.90
31263;DHT22;17892;52.080;9.006;2023-02-15T03:08:56;2.70;99.90
31263;DHT22;17892;52.080;9.006;2023-02-15T03:11:25;2.70;99.90
31263;DHT22;17892;52.080;9.006;2023-02-15T03:13:51;2.70;99.90
31263;DHT22;17892;52.080;9.006;2023-02-15T03:16:17;2.60;99.90
31263;DHT22;17892;52.080;9.006;2023-02-15T03:19:03;2.60;99.90
31263;DHT22;17892;52.080;9.006;2023-02-15T03:21:51;2.60;99.90
31263;DHT22;17892;52.080;9.006;2023-02-15T03:24:33;2.60;99.90
31263;DHT22;17892;52.080;9.006;2023-02-15T03:27:04;2.50;99.90
31263;DHT22;17892;52.080;9.006;2023-02-15T03:29:35;2.50;99.90
31263;DHT22;17892;52.080;9.006;2023-02-15T03:32:04;2.50;99.90
31263;DHT22;17892;52.080;9.006;2023-02-15T03:34:32;2.40;99.90
31263;DHT22;17892;52.080;9.006;2023-02-15T03:40:00;2.40;99.90
31263;DHT22;17892;52.080;9.006;2023-02-15T03:42:56;2.40;99.90
31263;DHT22;17892;52.080;9.006;2023-02-15T03:45:30;2.30;99.90
31263;DHT22;17892;52.080;9.006;2023-02-15T03:47:57;2.20;99.90
31263;DHT22;17892;52.080;9.006;2023-02-15T03:50:33;2.20;99.90
31263;DHT22;17892;52.080;9.006;2023-02-15T03:53:21;2.20;99.90
31263;DHT22;17892;52.080;9.006;2023-02-15T03:55:49;2.10;99.90
31263;DHT22;17892;52.080;9.006;2023-02-15T03:58:18;2.10;99.90
31263;DHT22;17892;52.080;9.006;2023-02-15T04:01:10;2.00;99.90
31263;DHT22;17892;52.080;9.006;2023-02-15T04:04:03;2.00;99.90
31263;DHT22;17892;52.080;9.006;2023-02-15T04:06:35;2.00;99.90
31263;DHT22;17892;52.080;9.006;2023-02-15T04:09:01;1.90;99.90
31263;DHT22;17892;52.080;9.006;2023-02-15T04:11:45;1.90;99.90
31263;DHT22;17892;52.080;9.006;2023-02-15T04:14:11;1.90;99.90
31263;DHT22;17892;52.080;9.006;2023-02-15T04:16:55;1.90;99.90
31263;DHT22;17892;52.080;9.006;2023-02-15T04:19:21;1.80;99.90
31263;DHT22;17892;52.080;9.006;2023-02-15T04:22:04;1.80;99.90
31263;DHT22;17892;52.080;9.006;2023-02-15T04:24:49;1.80;99.90
31263;DHT22;17892;52.080;9.006;2023-02-15T04:27:33;1.80;99.90
31263;DHT22;17892;52.080;9.006;2023-02-15T04:29:59;1.80;99.90
31263;DHT22;17892;52.080;9.006;2023-02-15T04:32:24;1.80;99.90
31263;DHT22;17892;52.080;9.006;2023-02-15T04:34:50;1.80;99.90
31263;DHT22;17892;52.080;9.006;2023-02-15T04:37:16;1.80;99.90
31263;DHT22;17892;52.080;9.006;2023-02-15T04:39:41;1.90;99.90
31263;DHT22;17892;52.080;9.006;2023-02-15T04:42:07;1.80;99.90
31263;DHT22;17892;52.080;9.006;2023-02-15T04:44:33;1.90;99.90
31263;DHT22;17892;52.080;9.006;2023-02-15T04:46:59;1.90;99.90
31263;DHT22;17892;52.080;9.006;2023-02-15T04:49:25;1.90;99.90
31263;DHT22;17892;52.080;9.006;2023-02-15T04:51:51;1.90;99.90
31263;DHT22;17892;52.080;9.006;2023-02-15T04:54:16;1.90;99.90
31263;DHT22;17892;52.080;9.006;2023-02-15T04:56:43;1.90;99.90
31263;DHT22;17892;52.080;9.006;2023-02-15T04:59:12;1.90;99.90
31263;DHT22;17892;52.080;9.006;2023-02-15T05:01:38;1.90;99.90
31263;DHT22;17892;52.080;9.006;2023-02-15T05:04:04;1.90;99.90
31263;DHT22;17892;52.080;9.006;2023-02-15T05:06:29;1.90;99.90
31263;DHT22;17892;52.080;9.006;2023-02-15T05:08:55;1.90;99.90
31263;DHT22;17892;52.080;9.006;2023-02-15T05:11:24;1.90;99.90
31263;DHT22;17892;52.080;9.006;2023-02-15T05:13:50;1.80;99.90
31263;DHT22;17892;52.080;9.006;2023-02-15T05:16:16;1.80;99.90
31263;DHT22;17892;52.080;9.006;2023-02-15T05:18:41;1.80;99.90
31263;DHT22;17892;52.080;9.006;2023-02-15T05:21:07;1.80;99.90
31263;DHT22;17892;52.080;9.006;2023-02-15T05:23:33;1.80;99.90
31263;DHT22;17892;52.080;9.006;2023-02-15T05:25:58;1.80;99.90
31263;DHT22;17892;52.080;9.006;2023-02-15T05:28:43;1.70;99.90
31263;DHT22;17892;52.080;9.006;2023-02-15T05:31:17;1.70;99.90
31263;DHT22;17892;52.080;9.006;2023-02-15T05:33:44;1.70;99.90
31263;DHT22;17892;52.080;9.006;2023-02-15T05:36:10;1.70;99.90
31263;DHT22;17892;52.080;9.006;2023-02-15T05:38:37;1.60;99.90
31263;DHT22;17892;52.080;9.006;2023-02-15T05:41:08;1.60;99.90
31263;DHT22;17892;52.080;9.006;2023-02-15T05:43:35;1.60;99.90
31263;DHT22;17892;52.080;9.006;2023-02-15T05:46:02;1.60;99.90
31263;DHT22;17892;52.080;9.006;2023-02-15T05:48:28;1.60;99.90
31263;DHT22;17892;52.080;9.006;2023-02-15T05:51:05;1.60;99.90
31263;DHT22;17892;52.080;9.006;2023-02-15T05:53:35;1.60;99.90
31263;DHT22;17892;52.080;9.006;2023-02-15T05:56:02;1.70;99.90
31263;DHT22;17892;52.080;9.006;2023-02-15T05:58:35;1.70;99.90
31263;DHT22;17892;52.080;9.006;2023-02-15T06:03:39;1.70;99.90
31263;DHT22;17892;52.080;9.006;2023-02-15T06:06:05;1.70;99.90
31263;DHT22;17892;52.080;9.006;2023-02-15T06:08:33;1.70;99.90
31263;DHT22;17892;52.080;9.006;2023-02-15T06:10:59;1.70;99.90
31263;DHT22;17892;52.080;9.006;2023-02-15T06:13:25;1.70;99.90
31263;DHT22;17892;52.080;9.006;2023-02-15T06:15:51;1.80;99.90
31263;DHT22;17892;52.080;9.006;2023-02-15T06:18:17;1.80;99.90
31263;DHT22;17892;52.080;9.006;2023-02-15T06:20:45;1.80;99.90
31263;DHT22;17892;52.080;9.006;2023-02-15T06:23:11;1.80;99.90
31263;DHT22;17892;52.080;9.006;2023-02-15T06:25:37;1.80;99.90
31263;DHT22;17892;52.080;9.006;2023-02-15T06:28:03;1.80;99.90
31263;DHT22;17892;52.080;9.006;2023-02-15T06:30:29;1.80;99.90
31263;DHT22;17892;52.080;9.006;2023-02-15T06:32:55;1.80;99.90
31263;DHT22;17892;52.080;9.006;2023-02-15T06:35:20;1.80;99.90
31263;DHT22;17892;52.080;9.006;2023-02-15T06:37:47;1.80;99.90
31263;DHT22;17892;52.080;9.006;2023-02-15T06:40:13;1.80;99.90
31263;DHT22;17892;52.080;9.006;2023-02-15T06:42:39;1.80;99.90
31263;DHT22;17892;52.080;9.006;2023-02-15T06:45:05;1.90;99.90
31263;DHT22;17892;52.080;9.006;2023-02-15T06:47:31;1.90;99.90
31263;DHT22;17892;52.080;9.006;2023-02-15T06:49:57;1.90;99.90
31263;DHT22;17892;52.080;9.006;2023-02-15T06:52:23;1.90;99.90
31263;DHT22;17892;52.080;9.006;2023-02-15T06:54:48;1.90;99.90
31263;DHT22;17892;52.080;9.006;2023-02-15T06:57:14;1.90;99.90
31263;DHT22;17892;52.080;9.006;2023-02-15T06:59:40;1.90;99.90
31263;DHT22;17892;52.080;9.006;2023-02-15T07:02:05;1.90;99.90
31263;DHT22;17892;52.080;9.006;2023-02-15T07:04:31;1.90;99.90
31263;DHT22;17892;52.080;9.006;2023-02-15T07:06:57;1.90;99.90
31263;DHT22;17892;52.080;9.006;2023-02-15T07:09:23;1.90;99.90
31263;DHT22;17892;52.080;9.006;2023-02-15T07:11:49;1.80;99.90
31263;DHT22;17892;52.080;9.006;2023-02-15T07:14:33;1.80;99.90
31263;DHT22;17892;52.080;9.006;2023-02-15T07:16:59;1.80;99.90
31263;DHT22;17892;52.080;9.006;2023-02-15T07:19:25;1.90;99.90
31263;DHT22;17892;52.080;9.006;2023-02-15T07:21:50;1.90;99.90
31263;DHT22;17892;52.080;9.006;2023-02-15T07:24:16;1.90;99.90
31263;DHT22;17892;52.080;9.006;2023-02-15T07:26:42;2.00;99.90
31263;DHT22;17892;52.080;9.006;2023-02-15T07:29:08;2.00;99.90
31263;DHT22;17892;52.080;9.006;2023-02-15T07:31:33;2.00;99.90
31263;DHT22;17892;52.080;9.006;2023-02-15T07:33:59;2.10;99.90
31263;DHT22;17892;52.080;9.006;2023-02-15T07:36:25;2.10;99.90
31263;DHT22;17892;52.080;9.006;2023-02-15T07:38:50;2.20;99.90
31263;DHT22;17892;52.080;9.006;2023-02-15T07:41:17;2.20;99.90
31263;DHT22;17892;52.080;9.006;2023-02-15T07:43:44;2.30;99.90
31263;DHT22;17892;52.080;9.006;2023-02-15T07:46:15;2.40;99.90
31263;DHT22;17892;52.080;9.006;2023-02-15T07:48:43;2.40;99.90
31263;DHT22;17892;52.080;9.006;2023-02-15T07:51:10;2.40;99.90
31263;DHT22;17892;52.080;9.006;2023-02-15T07:53:38;2.40;99.90
31263;DHT22;17892;52.080;9.006;2023-02-15T07:56:06;2.50;99.90
31263;DHT22;17892;52.080;9.006;2023-02-15T07:58:35;2.50;99.90
31263;DHT22;17892;52.080;9.006;2023-02-15T08:01:17;2.50;99.90
31263;DHT22;17892;52.080;9.006;2023-02-15T08:03:46;2.50;99.90
31263;DHT22;17892;52.080;9.006;2023-02-15T08:06:11;2.40;99.90
31263;DHT22;17892;52.080;9.006;2023-02-15T08:08:39;2.40;99.90
31263;DHT22;17892;52.080;9.006;2023-02-15T08:11:07;2.40;99.90
31263;DHT22;17892;52.080;9.006;2023-02-15T08:14:16;2.50;99.90
31263;DHT22;17892;52.080;9.006;2023-02-15T08:19:15;2.60;99.90
31263;DHT22;17892;52.080;9.006;2023-02-15T08:21:53;2.70;99.90
31263;DHT22;17892;52.080;9.006;2023-02-15T08:24:24;2.70;99.90
31263;DHT22;17892;52.080;9.006;2023-02-15T08:26:55;2.80;99.90
31263;DHT22;17892;52.080;9.006;2023-02-15T08:29:23;2.90;99.90
31263;DHT22;17892;52.080;9.006;2023-02-15T08:31:53;3.00;99.90
31263;DHT22;17892;52.080;9.006;2023-02-15T08:34:20;3.10;99.90
31263;DHT22;17892;52.080;9.006;2023-02-15T08:36:46;3.20;99.90
31263;DHT22;17892;52.080;9.006;2023-02-15T08:39:14;3.20;99.90
31263;DHT22;17892;52.080;9.006;2023-02-15T08:41:43;3.30;99.90
31263;DHT22;17892;52.080;9.006;2023-02-15T08:44:10;3.20;99.90
31263;DHT22;17892;52.080;9.006;2023-02-15T08:46:41;3.20;99.90
31263;DHT22;17892;52.080;9.006;2023-02-15T08:49:09;3.10;99.90
31263;DHT22;17892;52.080;9.006;2023-02-15T08:51:38;3.10;99.90
31263;DHT22;17892;52.080;9.006;2023-02-15T08:54:07;3.00;99.90
31263;DHT22;17892;52.080;9.006;2023-02-15T08:56:37;3.00;99.90
31263;DHT22;17892;52.080;9.006;2023-02-15T08:59:05;3.00;99.90
31263;DHT22;17892;52.080;9.006;2023-02-15T09:01:33;3.00;99.90
31263;DHT22;17892;52.080;9.006;2023-02-15T09:04:02;3.00;99.90
31263;DHT22;17892;52.080;9.006;2023-02-15T09:06:36;3.10;99.90
31263;DHT22;17892;52.080;9.006;2023-02-15T09:09:03;3.20;99.90
31263;DHT22;17892;52.080;9.006;2023-02-15T09:11:32;3.20;99.90
31263;DHT22;17892;52.080;9.006;2023-02-15T09:14:02;3.30;99.90
31263;DHT22;17892;52.080;9.006;2023-02-15T09:16:36;3.40;99.90
31263;DHT22;17892;52.080;9.006;2023-02-15T09:19:04;3.50;99.90
31263;DHT22;17892;52.080;9.006;2023-02-15T09:21:31;3.70;99.90
31263;DHT22;17892;52.080;9.006;2023-02-15T09:24:00;3.80;99.90
31263;DHT22;17892;52.080;9.006;2023-02-15T09:26:29;4.00;99.90
31263;DHT22;17892;52.080;9.006;2023-02-15T09:28:58;4.10;99.90
31263;DHT22;17892;52.080;9.006;2023-02-15T09:31:28;4.30;99.90
31263;DHT22;17892;52.080;9.006;2023-02-15T09:34:00;4.50;99.90
31263;DHT22;17892;52.080;9.006;2023-02-15T09:36:30;4.70;99.90
31263;DHT22;17892;52.080;9.006;2023-02-15T09:39:09;4.90;99.90
31263;DHT22;17892;52.080;9.006;2023-02-15T09:47:33;6.00;99.90
31263;DHT22;17892;52.080;9.006;2023-02-15T09:50:34;6.40;99.90
31263;DHT22;17892;52.080;9.006;2023-02-15T09:56:38;7.20;99.90
31263;DHT22;17892;52.080;9.006;2023-02-15T09:59:17;7.40;99.90
31263;DHT22;17892;52.080;9.006;2023-02-15T10:05:21;7.80;99.90
31263;DHT22;17892;52.080;9.006;2023-02-15T10:08:23;8.00;99.90
31263;DHT22;17892;52.080;9.006;2023-02-15T10:14:17;8.20;99.90
31263;DHT22;17892;52.080;9.006;2023-02-15T10:20:08;8.30;99.90
31263;DHT22;17892;52.080;9.006;2023-02-15T10:23:25;8.30;99.90
31263;DHT22;17892;52.080;9.006;2023-02-15T10:26:22;8.30;99.80
31263;DHT22;17892;52.080;9.006;2023-02-15T10:34:59;7.80;99.50
31263;DHT22;17892;52.080;9.006;2023-02-15T10:37:45;7.90;99.90
31263;DHT22;17892;52.080;9.006;2023-02-15T10:55:34;8.40;99.90
31263;DHT22;17892;52.080;9.006;2023-02-15T11:01:18;8.50;99.90
31263;DHT22;17892;52.080;9.006;2023-02-15T11:04:09;8.60;99.90
31263;DHT22;17892;52.080;9.006;2023-02-15T11:06:52;8.70;99.40
31263;DHT22;17892;52.080;9.006;2023-02-15T11:09:21;8.80;99.90
31263;DHT22;17892;52.080;9.006;2023-02-15T11:11:56;9.10;99.90
31263;DHT22;17892;52.080;9.006;2023-02-15T11:14:37;9.30;99.90
31263;DHT22;17892;52.080;9.006;2023-02-15T11:17:12;9.50;99.90
31263;DHT22;17892;52.080;9.006;2023-02-15T11:20:04;9.80;99.90
31263;DHT22;17892;52.080;9.006;2023-02-15T11:22:40;10.10;99.90
31263;DHT22;17892;52.080;9.006;2023-02-15T11:25:17;10.40;99.90
31263;DHT22;17892;52.080;9.006;2023-02-15T11:27:47;10.80;99.90
31263;DHT22;17892;52.080;9.006;2023-02-15T11:30:22;11.20;99.90
31263;DHT22;17892;52.080;9.006;2023-02-15T11:32:50;11.50;99.90
31263;DHT22;17892;52.080;9.006;2023-02-15T11:38:22;12.20;99.90
31263;DHT22;17892;52.080;9.006;2023-02-15T11:41:21;12.50;99.90
31263;DHT22;17892;52.080;9.006;2023-02-15T11:46:27;12.90;99.90
31263;DHT22;17892;52.080;9.006;2023-02-15T11:48:52;12.80;99.90
31263;DHT22;17892;52.080;9.006;2023-02-15T11:51:21;12.50;99.90
31263;DHT22;17892;52.080;9.006;2023-02-15T11:53:48;12.20;99.90
31263;DHT22;17892;52.080;9.006;2023-02-15T11:56:25;11.90;99.70
31263;DHT22;17892;52.080;9.006;2023-02-15T11:59:06;11.80;98.10
31263;DHT22;17892;52.080;9.006;2023-02-15T12:01:46;11.70;98.90
31263;DHT22;17892;52.080;9.006;2023-02-15T12:04:37;11.70;99.90
31263;DHT22;17892;52.080;9.006;2023-02-15T12:07:25;11.80;99.90
31263;DHT22;17892;52.080;9.006;2023-02-15T12:12:44;12.20;99.90
31263;DHT22;17892;52.080;9.006;2023-02-15T12:15:11;12.50;99.90
31263;DHT22;17892;52.080;9.006;2023-02-15T12:17:49;12.70;99.90
31263;DHT22;17892;52.080;9.006;2023-02-15T12:22:54;13.20;99.90
31263;DHT22;17892;52.080;9.006;2023-02-15T12:25:35;13.40;99.90
31263;DHT22;17892;52.080;9.006;2023-02-15T12:28:03;13.70;99.90
31263;DHT22;17892;52.080;9.006;2023-02-15T12:30:34;13.90;99.90
31263;DHT22;17892;52.080;9.006;2023-02-15T12:36:10;14.20;95.80
31263;DHT22;17892;52.080;9.006;2023-02-15T12:38:37;14.40;99.90
31263;DHT22;17892;52.080;9.006;2023-02-15T12:41:24;14.40;99.90
31263;DHT22;17892;52.080;9.006;2023-02-15T12:44:18;14.60;99.90
31263;DHT22;17892;52.080;9.006;2023-02-15T12:49:36;14.70;99.90
31263;DHT22;17892;52.080;9.006;2023-02-15T12:52:23;14.80;99.90
31263;DHT22;17892;52.080;9.006;2023-02-15T12:54:51;14.80;96.90
31263;DHT22;17892;52.080;9.006;2023-02-15T12:57:32;14.90;99.90
31263;DHT22;17892;52.080;9.006;2023-02-15T13:00:03;14.90;99.90
31263;DHT22;17892;52.080;9.006;2023-02-15T13:05:36;14.70;97.90
31263;DHT22;17892;52.080;9.006;2023-02-15T13:08:16;14.70;97.90
31263;DHT22;17892;52.080;9.006;2023-02-15T13:11:03;14.70;99.90
31263;DHT22;17892;52.080;9.006;2023-02-15T13:13:34;14.70;99.90
31263;DHT22;17892;52.080;9.006;2023-02-15T13:16:11;14.80;99.90
31263;DHT22;17892;52.080;9.006;2023-02-15T13:18:41;14.90;99.90
31263;DHT22;17892;52.080;9.006;2023-02-15T13:21:15;15.00;99.90
31263;DHT22;17892;52.080;9.006;2023-02-15T13:23:44;15.00;99.90
31263;DHT22;17892;52.080;9.006;2023-02-15T13:26:21;15.00;93.40
31263;DHT22;17892;52.080;9.006;2023-02-15T13:28:57;14.90;99.90
31263;DHT22;17892;52.080;9.006;2023-02-15T13:31:27;14.80;99.10
31263;DHT22;17892;52.080;9.006;2023-02-15T13:37:20;14.50;99.90
31263;DHT22;17892;52.080;9.006;2023-02-15T13:42:46;14.20;97.00
31263;DHT22;17892;52.080;9.006;2023-02-15T13:51:37;14.00;99.90
31263;DHT22;17892;52.080;9.006;2023-02-15T13:54:33;13.90;96.00
31263;DHT22;17892;52.080;9.006;2023-02-15T14:05:51;12.80;97.40
31263;DHT22;17892;52.080;9.006;2023-02-15T14:08:46;12.60;97.10
31263;DHT22;17892;52.080;9.006;2023-02-15T14:14:48;12.20;96.80
31263;DHT22;17892;52.080;9.006;2023-02-15T14:21:03;11.80;95.90
31263;DHT22;17892;52.080;9.006;2023-02-15T14:29:55;11.30;99.90
31263;DHT22;17892;52.080;9.006;2023-02-15T14:35:00;11.10;99.90
31263;DHT22;17892;52.080;9.006;2023-02-15T14:40:57;11.00;99.90
31263;DHT22;17892;52.080;9.006;2023-02-15T14:43:37;11.00;99.90
31263;DHT22;17892;52.080;9.006;2023-02-15T14:46:30;10.90;99.90
31263;DHT22;17892;52.080;9.006;2023-02-15T14:49:11;10.90;99.90
31263;DHT22;17892;52.080;9.006;2023-02-15T15:05:10;10.80;99.90
31263;DHT22;17892;52.080;9.006;2023-02-15T15:07:47;10.80;99.90
31263;DHT22;17892;52.080;9.006;2023-02-15T15:12:46;10.70;99.90
31263;DHT22;17892;52.080;9.006;2023-02-15T15:15:45;10.70;99.90
31263;DHT22;17892;52.080;9.006;2023-02-15T15:18:45;10.70;99.90
31263;DHT22;17892;52.080;9.006;2023-02-15T15:21:34;10.70;99.90
31263;DHT22;17892;52.080;9.006;2023-02-15T15:35:54;10.60;99.90
31263;DHT22;17892;52.080;9.006;2023-02-15T15:41:51;10.80;99.90
31263;DHT22;17892;52.080;9.006;2023-02-15T15:50:26;11.20;99.90
31263;DHT22;17892;52.080;9.006;2023-02-15T15:52:55;11.20;99.90
31263;DHT22;17892;52.080;9.006;2023-02-15T15:55:26;11.10;99.90
31263;DHT22;17892;52.080;9.006;2023-02-15T15:57:56;11.00;99.90
31263;DHT22;17892;52.080;9.006;2023-02-15T16:00:41;10.80;99.90
31263;DHT22;17892;52.080;9.006;2023-02-15T16:05:49;10.50;99.90
31263;DHT22;17892;52.080;9.006;2023-02-15T16:10:58;10.20;99.70
31263;DHT22;17892;52.080;9.006;2023-02-15T16:13:25;10.10;99.90
31263;DHT22;17892;52.080;9.006;2023-02-15T16:15:55;10.00;99.90
31263;DHT22;17892;52.080;9.006;2023-02-15T16:18:26;9.80;99.90
31263;DHT22;17892;52.080;9.006;2023-02-15T16:20:55;9.70;99.90
31263;DHT22;17892;52.080;9.006;2023-02-15T16:26:38;9.50;99.90
31263;DHT22;17892;52.080;9.006;2023-02-15T16:29:32;9.40;99.90
31263;DHT22;17892;52.080;9.006;2023-02-15T16:35:00;9.20;99.90
31263;DHT22;17892;52.080;9.006;2023-02-15T16:37:32;9.10;99.90
31263;DHT22;17892;52.080;9.006;2023-02-15T16:39:59;9.00;99.90
31263;DHT22;17892;52.080;9.006;2023-02-15T16:42:25;8.90;99.90
31263;DHT22;17892;52.080;9.006;2023-02-15T16:47:40;8.70;99.90
31263;DHT22;17892;52.080;9.006;2023-02-15T16:50:22;8.60;99.90
31263;DHT22;17892;52.080;9.006;2023-02-15T16:52:51;8.50;99.90
31263;DHT22;17892;52.080;9.006;2023-02-15T16:55:23;8.40;99.90
31263;DHT22;17892;52.080;9.006;2023-02-15T16:57:51;8.30;99.90
31263;DHT22;17892;52.080;9.006;2023-02-15T17:00:22;8.20;99.90
31263;DHT22;17892;52.080;9.006;2023-02-15T17:03:04;8.10;99.90
31263;DHT22;17892;52.080;9.006;2023-02-15T17:05:53;8.10;99.90
31263;DHT22;17892;52.080;9.006;2023-02-15T17:08:33;8.10;99.90
31263;DHT22;17892;52.080;9.006;2023-02-15T17:11:15;8.00;99.90
31263;DHT22;17892;52.080;9.006;2023-02-15T17:16:30;8.00;99.90
31263;DHT22;17892;52.080;9.006;2023-02-15T17:19:00;8.00;99.90
31263;DHT22;17892;52.080;9.006;2023-02-15T17:21:33;8.00;99.90
31263;DHT22;17892;52.080;9.006;2023-02-15T17:24:02;7.90;99.90
31263;DHT22;17892;52.080;9.006;2023-02-15T17:26:30;7.90;99.90
31263;DHT22;17892;52.080;9.006;2023-02-15T17:29:27;7.90;99.90
31263;DHT22;17892;52.080;9.006;2023-02-15T17:31:55;7.80;99.90
31263;DHT22;17892;52.080;9.006;2023-02-15T17:34:46;7.80;99.90
31263;DHT22;17892;52.080;9.006;2023-02-15T17:37:41;7.70;99.90
31263;DHT22;17892;52.080;9.006;2023-02-15T17:40:24;7.70;99.90
31263;DHT22;17892;52.080;9.006;2023-02-15T17:42:51;7.70;99.90
31263;DHT22;17892;52.080;9.006;2023-02-15T17:45:17;7.60;99.90
31263;DHT22;17892;52.080;9.006;2023-02-15T17:47:46;7.60;99.90
31263;DHT22;17892;52.080;9.006;2023-02-15T17:50:25;7.60;99.90
31263;DHT22;17892;52.080;9.006;2023-02-15T17:52:52;7.60;99.90
31263;DHT22;17892;52.080;9.006;2023-02-15T17:55:21;7.60;99.90
31263;DHT22;17892;52.080;9.006;2023-02-15T17:58:02;7.50;99.90
31263;DHT22;17892;52.080;9.006;2023-02-15T18:00:30;7.50;99.90
31263;DHT22;17892;52.080;9.006;2023-02-15T18:03:15;7.40;99.90
31263;DHT22;17892;52.080;9.006;2023-02-15T18:06:01;7.40;99.90
31263;DHT22;17892;52.080;9.006;2023-02-15T18:08:45;7.30;99.90
31263;DHT22;17892;52.080;9.006;2023-02-15T18:11:29;7.30;99.90
31263;DHT22;17892;52.080;9.006;2023-02-15T18:14:02;7.20;99.90
31263;DHT22;17892;52.080;9.006;2023-02-15T18:16:32;7.20;99.90
31263;DHT22;17892;52.080;9.006;2023-02-15T18:18:59;7.10;99.90
31263;DHT22;17892;52.080;9.006;2023-02-15T18:21:26;7.10;99.90
31263;DHT22;17892;52.080;9.006;2023-02-15T18:23:51;7.00;99.90
31263;DHT22;17892;52.080;9.006;2023-02-15T18:26:25;7.00;99.90
31263;DHT22;17892;52.080;9.006;2023-02-15T18:28:51;7.00;99.90
31263;DHT22;17892;52.080;9.006;2023-02-15T18:31:18;6.90;99.90
31263;DHT22;17892;52.080;9.006;2023-02-15T18:34:03;6.90;99.90
31263;DHT22;17892;52.080;9.006;2023-02-15T18:36:32;6.80;99.90
31263;DHT22;17892;52.080;9.006;2023-02-15T18:38:59;6.80;99.90
31263;DHT22;17892;52.080;9.006;2023-02-15T18:41:25;6.70;99.90
31263;DHT22;17892;52.080;9.006;2023-02-15T18:43:51;6.60;99.90
31263;DHT22;17892;52.080;9.006;2023-02-15T18:46:18;6.60;99.90
31263;DHT22;17892;52.080;9.006;2023-02-15T18:48:44;6.50;99.90
31263;DHT22;17892;52.080;9.006;2023-02-15T18:51:19;6.40;99.90
31263;DHT22;17892;52.080;9.006;2023-02-15T18:53:48;6.40;99.90
31263;DHT22;17892;52.080;9.006;2023-02-15T18:56:17;6.40;99.90
31263;DHT22;17892;52.080;9.006;2023-02-15T18:58:44;6.40;99.90
31263;DHT22;17892;52.080;9.006;2023-02-15T19:01:19;6.40;99.90
31263;DHT22;17892;52.080;9.006;2023-02-15T19:03:50;6.40;99.90
31263;DHT22;17892;52.080;9.006;2023-02-15T19:06:18;6.40;99.90
31263;DHT22;17892;52.080;9.006;2023-02-15T19:08:47;6.30;99.90
31263;DHT22;17892;52.080;9.006;2023-02-15T19:11:23;6.30;99.90
31263;DHT22;17892;52.080;9.006;2023-02-15T19:13:51;6.30;99.90
31263;DHT22;17892;52.080;9.006;2023-02-15T19:18:59;6.10;99.90
31263;DHT22;17892;52.080;9.006;2023-02-15T19:21:26;6.10;99.90
31263;DHT22;17892;52.080;9.006;2023-02-15T19:23:56;6.00;99.90
31263;DHT22;17892;52.080;9.006;2023-02-15T19:26:24;5.90;99.90